Time;durP1;ratioP1;P1;durP2;ratioP2;P2;SDS_P1;SDS_P2;PMS_P1;PMS_P2;Temp;Humidity;BMP_temperature;BMP_pressure;BME280_temperature;BME280_humidity;BME280_pressure;Samples;Min_cycle;Max_cycle;Signal;HPM_P1;HPM_P2
2022/09/18 00:02:25;;;;;;;2.03;1.60;;;11.20;99.90;;;;;;5013585;28;20172;-73
2022/09/18 00:04:51;;;;;;;1.60;1.50;;;11.20;99.90;;;;;;5013037;28;20670;-73
2022/09/18 00:07:17;;;;;;;2.13;1.93;;;11.20;99.90;;;;;;5013002;28;20196;-73
2022/09/18 00:09:43;;;;;;;2.53;1.43;;;11.20;99.90;;;;;;5012910;28;20408;-72
2022/09/18 00:12:09;;;;;;;1.83;1.73;;;11.10;99.90;;;;;;5013062;28;20752;-73
2022/09/18 00:14:35;;;;;;;2.90;1.93;;;11.10;99.90;;;;;;5013009;28;20961;-73
2022/09/18 00:17:01;;;;;;;1.70;1.60;;;11.10;99.90;;;;;;5013293;28;20422;-73
2022/09/18 00:19:27;;;;;;;2.80;2.27;;;11.00;99.90;;;;;;5015452;28;20187;-72
2022/09/18 00:21:53;;;;;;;2.40;1.63;;;11.00;99.90;;;;;;5014620;28;20407;-72
2022/09/18 00:24:19;;;;;;;1.70;1.60;;;11.00;99.90;;;;;;5012805;28;20431;-73
2022/09/18 00:26:46;;;;;;;2.43;1.53;;;11.00;99.90;;;;;;5012617;28;20882;-73
2022/09/18 00:29:12;;;;;;;1.67;1.37;;;11.00;99.90;;;;;;5012570;28;20462;-73
2022/09/18 00:31:39;;;;;;;2.90;1.70;;;11.00;99.90;;;;;;5012660;28;20403;-73
2022/09/18 00:34:07;;;;;;;2.60;1.83;;;11.00;99.90;;;;;;5012400;28;20454;-72
2022/09/18 00:36:34;;;;;;;1.50;1.40;;;11.00;99.90;;;;;;5012477;28;20407;-72
2022/09/18 00:39:01;;;;;;;1.67;1.57;;;10.90;99.90;;;;;;5013156;28;20415;-72
2022/09/18 00:41:36;;;;;;;2.10;1.17;;;10.90;99.90;;;;;;5012876;28;20422;-72
2022/09/18 00:44:41;;;;;;;3.33;1.60;;;10.90;99.90;;;;;;5012540;28;20457;-72
2022/09/18 00:47:10;;;;;;;1.90;1.40;;;10.90;99.90;;;;;;5012004;28;20399;-73
2022/09/18 00:49:38;;;;;;;1.67;1.47;;;10.90;99.90;;;;;;5012209;28;20526;-74
2022/09/18 00:52:05;;;;;;;2.90;1.30;;;10.90;99.90;;;;;;5016828;28;20469;-74
2022/09/18 00:54:35;;;;;;;2.57;1.50;;;10.90;99.90;;;;;;5015697;28;20461;-73
2022/09/18 00:57:06;;;;;;;1.30;1.20;;;10.90;99.90;;;;;;5011872;28;20404;-74
2022/09/18 00:59:34;;;;;;;2.03;1.23;;;10.90;99.90;;;;;;5011993;28;20414;-73
2022/09/18 01:02:00;;;;;;;2.27;1.40;;;10.80;99.90;;;;;;5012261;28;20497;-73
2022/09/18 01:04:27;;;;;;;1.87;1.30;;;10.80;99.90;;;;;;5012032;28;20897;-72
2022/09/18 01:07:15;;;;;;;0.90;0.90;;;10.70;99.90;;;;;;5011729;28;20399;-73
2022/09/18 01:10:02;;;;;;;0.80;0.80;;;10.70;99.90;;;;;;5011930;28;20410;-73
2022/09/18 01:12:47;;;;;;;1.07;0.90;;;10.70;99.90;;;;;;5012242;28;21013;-73
2022/09/18 01:15:28;;;;;;;2.13;0.83;;;10.70;99.90;;;;;;4994001;28;20512;-72
2022/09/18 01:18:15;;;;;;;2.10;0.90;;;10.70;99.90;;;;;;5011985;28;20411;-72
2022/09/18 01:20:54;;;;;;;0.97;0.87;;;10.70;99.90;;;;;;5011831;28;20439;-72
2022/09/18 01:23:41;;;;;;;2.50;0.90;;;10.60;99.90;;;;;;5012362;28;20398;-72
2022/09/18 01:26:25;;;;;;;6.63;1.00;;;10.60;99.90;;;;;;5012394;28;20955;-74
2022/09/18 01:28:59;;;;;;;1.57;1.00;;;10.50;99.90;;;;;;5012089;28;20468;-73
2022/09/18 01:31:43;;;;;;;1.13;1.03;;;10.50;99.90;;;;;;5012170;28;20410;-73
2022/09/18 01:34:23;;;;;;;2.07;0.80;;;10.50;99.90;;;;;;5011980;28;20442;-73
2022/09/18 01:36:56;;;;;;;2.40;0.90;;;10.50;99.90;;;;;;5011754;28;20491;-73
2022/09/18 01:39:52;;;;;;;0.93;0.80;;;10.50;99.90;;;;;;5012330;28;20417;-74
2022/09/18 01:42:21;;;;;;;1.30;0.93;;;10.40;99.90;;;;;;5011922;28;20415;-73
2022/09/18 01:44:48;;;;;;;3.90;0.90;;;10.40;99.90;;;;;;5011230;28;20432;-73
2022/09/18 01:47:17;;;;;;;0.90;0.90;;;10.50;99.90;;;;;;5010799;28;20950;-73
2022/09/18 01:49:48;;;;;;;2.93;0.70;;;10.40;99.90;;;;;;5011818;28;20411;-73
2022/09/18 01:52:22;;;;;;;0.90;0.70;;;10.40;99.90;;;;;;5011708;28;20426;-73
2022/09/18 01:54:50;;;;;;;2.20;0.73;;;10.40;99.90;;;;;;5011248;28;20977;-72
2022/09/18 01:57:36;;;;;;;1.63;1.10;;;10.40;99.90;;;;;;5011450;28;20422;-72
2022/09/18 02:00:07;;;;;;;2.17;0.90;;;10.50;99.90;;;;;;5014325;28;20425;-72
2022/09/18 02:02:41;;;;;;;1.33;0.70;;;10.40;99.90;;;;;;5015517;28;20506;-72
2022/09/18 02:05:23;;;;;;;0.70;0.70;;;10.40;99.90;;;;;;5014998;28;20478;-72
2022/09/18 02:07:55;;;;;;;0.80;0.77;;;10.40;99.90;;;;;;5015319;28;20454;-72
2022/09/18 02:10:23;;;;;;;0.70;0.70;;;10.40;99.90;;;;;;5015289;28;20480;-72
2022/09/18 02:12:52;;;;;;;0.70;0.70;;;10.40;99.90;;;;;;5015518;28;20461;-72
2022/09/18 02:15:18;;;;;;;1.60;0.80;;;10.40;99.90;;;;;;4997655;28;20522;-73
2022/09/18 02:17:55;;;;;;;0.80;0.80;;;10.40;99.90;;;;;;5059503;22;20498;-66
2022/09/18 02:20:25;;;;;;;1.33;0.83;;;10.50;99.90;;;;;;5015133;28;20407;-66
2022/09/18 02:22:55;;;;;;;1.20;0.90;;;10.40;99.90;;;;;;5014898;28;20514;-66
2022/09/18 02:25:26;;;;;;;1.10;1.00;;;10.50;99.90;;;;;;5014812;28;20402;-66
2022/09/18 02:27:53;;;;;;;2.20;1.00;;;10.40;99.90;;;;;;5014959;28;20463;-66
2022/09/18 02:30:19;;;;;;;0.93;0.90;;;10.50;99.90;;;;;;5014882;28;20760;-67
2022/09/18 02:32:45;;;;;;;0.90;0.90;;;10.40;99.90;;;;;;5015142;28;20495;-66
2022/09/18 02:35:12;;;;;;;1.50;1.07;;;10.40;99.90;;;;;;5014788;28;20417;-67
2022/09/18 02:38:14;;;;;;;2.10;1.13;;;10.50;99.90;;;;;;5014765;28;20433;-67
2022/09/18 02:40:53;;;;;;;1.87;1.00;;;10.50;99.90;;;;;;5014746;28;20405;-67
2022/09/18 02:43:54;;;;;;;3.07;1.20;;;10.40;99.90;;;;;;5014901;28;20425;-67
2022/09/18 02:47:07;;;;;;;1.20;0.90;;;10.40;99.90;;;;;;5014500;28;20459;-67
2022/09/18 02:49:52;;;;;;;2.20;1.10;;;10.40;99.90;;;;;;5014690;28;20418;-67
2022/09/18 02:52:33;;;;;;;2.23;1.00;;;10.50;99.90;;;;;;5014957;28;20405;-69
2022/09/18 02:55:10;;;;;;;2.00;1.20;;;10.40;99.90;;;;;;5014453;28;20479;-68
2022/09/18 02:57:48;;;;;;;1.70;1.30;;;10.40;99.90;;;;;;5014933;28;20415;-68
2022/09/18 03:00:17;;;;;;;2.83;1.57;;;10.40;99.90;;;;;;5014548;28;20410;-68
2022/09/18 03:02:43;;;;;;;1.43;1.03;;;10.40;99.90;;;;;;5014647;28;20399;-69
2022/09/18 03:05:09;;;;;;;4.47;1.97;;;10.40;99.90;;;;;;5014396;28;20401;-68
2022/09/18 03:07:35;;;;;;;2.70;1.40;;;10.40;99.90;;;;;;4996442;28;20534;-68
2022/09/18 03:10:01;;;;;;;5.97;1.60;;;10.40;99.90;;;;;;5013909;28;20599;-68
2022/09/18 03:12:26;;;;;;;9.00;1.73;;;10.40;99.90;;;;;;5013670;28;20165;-68
2022/09/18 03:14:52;;;;;;;2.43;1.50;;;10.40;99.90;;;;;;5014350;28;20493;-68
2022/09/18 03:17:18;;;;;;;3.07;1.47;;;10.40;99.90;;;;;;5014608;28;20204;-67
2022/09/18 03:19:43;;;;;;;4.10;1.90;;;10.40;99.90;;;;;;5014525;28;20172;-69
2022/09/18 03:22:09;;;;;;;8.40;1.40;;;10.40;99.90;;;;;;5014565;28;20681;-68
2022/09/18 03:24:35;;;;;;;6.00;1.50;;;10.40;99.90;;;;;;5014255;28;20200;-67
2022/09/18 03:27:00;;;;;;;4.07;1.40;;;10.30;99.90;;;;;;5013895;28;20466;-67
2022/09/18 03:29:26;;;;;;;4.10;1.70;;;10.30;99.90;;;;;;5014110;28;20721;-68
2022/09/18 03:31:51;;;;;;;4.20;1.70;;;10.40;99.90;;;;;;5014135;28;20179;-67
2022/09/18 03:34:17;;;;;;;3.50;2.00;;;10.30;99.90;;;;;;5013746;28;20706;-67
2022/09/18 03:36:42;;;;;;;4.83;1.40;;;10.40;99.90;;;;;;5013694;28;20214;-67
2022/09/18 03:39:08;;;;;;;2.30;1.60;;;10.30;99.90;;;;;;5013589;28;20238;-66
2022/09/18 03:41:33;;;;;;;2.80;1.57;;;10.30;99.90;;;;;;5013525;28;20212;-66
2022/09/18 03:43:59;;;;;;;4.20;2.23;;;10.30;99.90;;;;;;4995988;28;20211;-66
2022/09/18 03:46:25;;;;;;;2.10;1.40;;;10.30;99.90;;;;;;5013419;28;20227;-66
2022/09/18 03:48:51;;;;;;;3.83;2.03;;;10.30;99.90;;;;;;5013456;28;20663;-66
2022/09/18 03:51:18;;;;;;;6.27;1.53;;;10.30;99.90;;;;;;5013496;28;20203;-67
2022/09/18 03:53:47;;;;;;;7.80;1.80;;;10.30;99.90;;;;;;5013329;28;20406;-67
2022/09/18 03:56:13;;;;;;;10.30;1.80;;;10.30;99.90;;;;;;5013256;28;20427;-66
2022/09/18 03:58:39;;;;;;;7.17;3.77;;;10.30;99.90;;;;;;5013644;28;20407;-68
2022/09/18 04:01:05;;;;;;;6.90;2.10;;;10.30;99.90;;;;;;5013379;28;20415;-68
2022/09/18 04:03:32;;;;;;;7.87;2.07;;;10.30;99.90;;;;;;5013623;28;20411;-69
2022/09/18 04:05:58;;;;;;;8.10;2.50;;;10.20;99.90;;;;;;5013146;28;20773;-68
2022/09/18 04:08:23;;;;;;;5.23;2.13;;;10.20;99.90;;;;;;5013605;28;20451;-66
2022/09/18 04:10:49;;;;;;;7.00;2.10;;;10.20;99.90;;;;;;5013317;28;20176;-67
2022/09/18 04:13:15;;;;;;;2.23;2.03;;;10.30;99.90;;;;;;5013265;28;20171;-66
2022/09/18 04:15:40;;;;;;;8.47;2.27;;;10.20;99.90;;;;;;5013430;28;20164;-68
2022/09/18 04:18:06;;;;;;;5.93;2.67;;;10.20;99.90;;;;;;5013465;28;20837;-68
2022/09/18 04:20:31;;;;;;;8.37;2.30;;;10.10;99.90;;;;;;5013282;28;20176;-67
2022/09/18 04:22:57;;;;;;;6.27;2.27;;;10.10;99.90;;;;;;5012804;28;20177;-67
2022/09/18 04:25:22;;;;;;;7.90;2.10;;;10.20;99.90;;;;;;5012606;28;20258;-67
2022/09/18 04:27:48;;;;;;;12.03;2.57;;;10.20;99.90;;;;;;5012762;28;20682;-67
2022/09/18 04:30:14;;;;;;;4.50;2.50;;;10.20;99.90;;;;;;5012861;28;20718;-68
2022/09/18 04:32:41;;;;;;;10.67;3.43;;;10.20;99.90;;;;;;5012701;28;20210;-66
2022/09/18 04:35:07;;;;;;;4.00;2.27;;;10.10;99.90;;;;;;5012456;28;20967;-67
2022/09/18 04:37:32;;;;;;;4.30;2.17;;;10.10;99.90;;;;;;5012592;28;20464;-67
2022/09/18 04:39:58;;;;;;;4.53;2.00;;;10.10;99.90;;;;;;5012617;28;20208;-67
2022/09/18 04:42:23;;;;;;;3.53;2.10;;;10.00;99.90;;;;;;5012544;28;20188;-67
2022/09/18 04:44:49;;;;;;;6.60;3.43;;;10.10;99.90;;;;;;5012375;28;20206;-67
2022/09/18 04:47:14;;;;;;;5.23;2.27;;;10.10;99.90;;;;;;5012419;28;20693;-67
2022/09/18 04:49:40;;;;;;;4.50;2.20;;;10.10;99.90;;;;;;5012523;28;20172;-67
2022/09/18 04:52:05;;;;;;;5.10;2.27;;;10.10;99.90;;;;;;5012373;28;20287;-67
2022/09/18 04:54:31;;;;;;;10.27;2.60;;;10.10;99.90;;;;;;5012512;28;20227;-66
2022/09/18 04:56:56;;;;;;;4.03;1.80;;;10.10;99.90;;;;;;5012296;28;20204;-67
2022/09/18 04:59:22;;;;;;;6.57;2.63;;;10.10;99.90;;;;;;5012295;28;20546;-67
2022/09/18 05:01:47;;;;;;;5.63;2.13;;;10.00;99.90;;;;;;5012500;28;20227;-67
2022/09/18 05:04:13;;;;;;;8.73;3.17;;;10.10;99.90;;;;;;5012363;28;20226;-67
2022/09/18 05:06:39;;;;;;;6.83;2.33;;;10.10;99.90;;;;;;5012102;28;20195;-67
2022/09/18 05:09:04;;;;;;;5.40;2.57;;;10.10;99.90;;;;;;5012270;28;20264;-67
2022/09/18 05:11:30;;;;;;;5.23;2.97;;;10.10;99.90;;;;;;5012134;28;20565;-67
2022/09/18 05:13:56;;;;;;;9.70;2.60;;;10.00;99.90;;;;;;5012236;28;20222;-67
2022/09/18 05:16:23;;;;;;;5.97;2.23;;;10.10;99.90;;;;;;5011932;28;20240;-67
2022/09/18 05:18:52;;;;;;;4.70;2.20;;;10.10;99.90;;;;;;5012209;28;20411;-67
2022/09/18 05:21:18;;;;;;;3.63;1.50;;;10.00;99.90;;;;;;5011996;28;20914;-67
2022/09/18 05:23:45;;;;;;;7.70;1.80;;;10.00;99.90;;;;;;5012148;28;20457;-67
2022/09/18 05:26:11;;;;;;;3.43;1.50;;;10.10;99.90;;;;;;5011800;28;20481;-67
2022/09/18 05:28:37;;;;;;;16.67;2.77;;;10.10;99.90;;;;;;5012043;28;20458;-67
2022/09/18 05:31:03;;;;;;;8.00;3.43;;;10.10;99.90;;;;;;5011809;28;20165;-67
2022/09/18 05:33:28;;;;;;;4.80;2.53;;;10.20;99.90;;;;;;5012076;28;20172;-66
2022/09/18 05:35:55;;;;;;;4.23;2.33;;;10.20;99.90;;;;;;5017574;28;20496;-67
2022/09/18 05:38:22;;;;;;;6.00;2.10;;;10.20;99.90;;;;;;5018114;28;20649;-66
2022/09/18 05:40:47;;;;;;;2.73;1.70;;;10.20;99.90;;;;;;5018132;28;20411;-66
2022/09/18 05:43:13;;;;;;;6.17;1.70;;;10.10;99.90;;;;;;5017837;28;20782;-69
2022/09/18 05:45:39;;;;;;;4.27;1.80;;;10.00;99.90;;;;;;5017632;28;20175;-67
2022/09/18 05:48:05;;;;;;;2.97;1.37;;;9.90;99.90;;;;;;5017651;28;20505;-68
2022/09/18 05:50:32;;;;;;;2.93;1.67;;;10.00;99.90;;;;;;5017766;28;20615;-67
2022/09/18 05:53:07;;;;;;;4.13;1.30;;;10.10;99.90;;;;;;5016097;28;20430;-67
2022/09/18 05:55:33;;;;;;;6.53;1.83;;;10.10;99.90;;;;;;5011266;28;20708;-67
2022/09/18 05:58:01;;;;;;;2.30;1.60;;;10.00;99.90;;;;;;5017666;28;20526;-67
2022/09/18 06:00:29;;;;;;;4.47;2.00;;;10.10;99.90;;;;;;5017707;28;20494;-68
2022/09/18 06:02:59;;;;;;;4.27;1.83;;;10.10;99.90;;;;;;5017326;28;20932;-67
2022/09/18 06:05:25;;;;;;;4.07;1.40;;;9.90;99.90;;;;;;5017656;28;20895;-67
2022/09/18 06:07:51;;;;;;;5.10;3.03;;;10.00;99.90;;;;;;5017552;28;20482;-66
2022/09/18 06:10:18;;;;;;;4.23;2.03;;;10.10;99.90;;;;;;5017581;28;20411;-67
2022/09/18 06:12:44;;;;;;;2.33;1.50;;;10.60;99.90;;;;;;5017735;28;20168;-67
2022/09/18 06:15:11;;;;;;;8.40;1.83;;;10.90;99.90;;;;;;5017726;28;20422;-66
2022/09/18 06:17:37;;;;;;;2.90;1.40;;;11.40;99.90;;;;;;5017528;28;20489;-66
2022/09/18 06:20:04;;;;;;;4.73;1.60;;;11.10;99.90;;;;;;5017726;28;20545;-66
2022/09/18 06:22:31;;;;;;;3.40;1.77;;;11.50;99.90;;;;;;5017498;28;20430;-67
2022/09/18 06:24:57;;;;;;;8.87;1.60;;;11.70;99.90;;;;;;5017455;28;20549;-66
2022/09/18 06:27:23;;;;;;;7.60;1.53;;;11.70;99.90;;;;;;5017036;28;20525;-67
2022/09/18 06:29:49;;;;;;;3.80;1.50;;;11.50;99.90;;;;;;5017736;28;20164;-67
2022/09/18 06:32:14;;;;;;;2.40;1.90;;;11.60;99.90;;;;;;5017627;28;20263;-67
2022/09/18 06:34:40;;;;;;;5.07;1.70;;;11.60;99.90;;;;;;5017090;28;20498;-67
2022/09/18 06:37:08;;;;;;;6.13;2.30;;;11.90;99.90;;;;;;5017007;28;20196;-67
2022/09/18 06:39:34;;;;;;;1.83;1.17;;;12.70;99.90;;;;;;5017415;28;20540;-66
2022/09/18 06:42:00;;;;;;;4.77;1.53;;;13.20;99.90;;;;;;5017382;28;20404;-66
2022/09/18 06:44:25;;;;;;;2.70;1.20;;;12.60;99.90;;;;;;5017094;28;20579;-66
2022/09/18 06:46:51;;;;;;;5.93;1.53;;;13.40;99.90;;;;;;5013248;28;20281;-66
2022/09/18 06:49:16;;;;;;;7.70;1.87;;;13.20;99.90;;;;;;5014026;28;20197;-67
2022/09/18 06:51:42;;;;;;;2.00;1.37;;;13.90;99.90;;;;;;5014028;28;20321;-66
2022/09/18 06:54:07;;;;;;;2.30;1.50;;;13.40;99.90;;;;;;5013947;28;20189;-66
2022/09/18 06:56:33;;;;;;;2.77;1.20;;;12.30;99.90;;;;;;5014139;28;20193;-67
2022/09/18 06:58:58;;;;;;;3.40;1.27;;;12.50;99.90;;;;;;5013764;28;20254;-66
2022/09/18 07:01:24;;;;;;;4.40;1.70;;;13.00;99.90;;;;;;5013957;28;20173;-67
2022/09/18 07:03:49;;;;;;;6.40;1.30;;;13.70;99.90;;;;;;5013696;28;20176;-66
2022/09/18 07:06:15;;;;;;;3.20;1.40;;;13.60;99.90;;;;;;5013540;28;20207;-66
2022/09/18 07:08:41;;;;;;;3.10;1.40;;;13.70;99.90;;;;;;5013935;28;20200;-67
2022/09/18 07:11:06;;;;;;;5.07;1.90;;;14.30;99.90;;;;;;5013784;28;20403;-66
2022/09/18 07:13:33;;;;;;;4.20;1.70;;;14.00;99.90;;;;;;5013589;28;20168;-66
2022/09/18 07:15:58;;;;;;;2.63;0.90;;;14.40;99.90;;;;;;5013498;28;20214;-67
2022/09/18 07:18:24;;;;;;;1.93;1.20;;;14.20;99.90;;;;;;5013486;28;20459;-66
2022/09/18 07:20:50;;;;;;;5.17;1.70;;;13.50;99.90;;;;;;5013581;28;20166;-67
2022/09/18 07:23:16;;;;;;;4.57;1.53;;;14.40;99.90;;;;;;5013815;28;20170;-67
2022/09/18 07:25:42;;;;;;;8.53;1.40;;;15.10;99.90;;;;;;5013682;28;20814;-67
2022/09/18 07:28:10;;;;;;;3.03;1.00;;;15.10;99.90;;;;;;5013402;28;20253;-67
2022/09/18 07:30:36;;;;;;;4.60;2.20;;;15.60;99.90;;;;;;5013555;28;20646;-67
2022/09/18 07:33:03;;;;;;;2.07;1.23;;;15.60;99.90;;;;;;5013705;28;20413;-67
2022/09/18 07:35:29;;;;;;;5.00;1.50;;;14.80;99.90;;;;;;5013357;28;20403;-67
2022/09/18 07:38:04;;;;;;;3.33;1.33;;;13.50;99.90;;;;;;5013407;28;20501;-68
2022/09/18 07:40:31;;;;;;;3.53;1.53;;;14.00;99.90;;;;;;5013539;28;20423;-66
2022/09/18 07:43:07;;;;;;;2.00;1.03;;;13.80;99.90;;;;;;5012895;28;20852;-66
2022/09/18 07:45:34;;;;;;;2.17;1.40;;;14.20;99.90;;;;;;5012848;28;20623;-67
2022/09/18 07:48:01;;;;;;;4.30;1.37;;;15.20;99.90;;;;;;5012842;28;20510;-67
2022/09/18 07:50:27;;;;;;;2.47;1.33;;;15.30;99.90;;;;;;5013013;28;20498;-66
2022/09/18 07:52:57;;;;;;;1.90;1.07;;;14.60;99.90;;;;;;5012963;28;20839;-68
2022/09/18 07:55:24;;;;;;;5.67;2.63;;;14.20;99.90;;;;;;5012503;28;20188;-68
2022/09/18 07:57:56;;;;;;;5.60;2.40;;;15.00;99.90;;;;;;5012488;28;20424;-67
2022/09/18 08:00:22;;;;;;;9.93;3.40;;;16.00;99.90;;;;;;5012792;28;20418;-67
2022/09/18 08:02:48;;;;;;;3.73;2.23;;;16.80;99.90;;;;;;5012828;28;20497;-67
2022/09/18 08:05:14;;;;;;;5.57;2.47;;;16.30;99.90;;;;;;5012495;28;20447;-67
2022/09/18 08:07:39;;;;;;;6.03;1.57;;;15.60;99.90;;;;;;5012520;28;20217;-67
2022/09/18 08:10:05;;;;;;;3.63;2.20;;;15.00;99.90;;;;;;5012645;28;20635;-66
2022/09/18 08:12:32;;;;;;;3.43;1.20;;;15.00;99.90;;;;;;5012790;28;20167;-66
2022/09/18 08:14:58;;;;;;;5.47;2.97;;;14.80;99.90;;;;;;5012227;28;20777;-66
2022/09/18 08:17:24;;;;;;;7.63;1.80;;;15.40;99.90;;;;;;5012890;28;20560;-67
2022/09/18 08:19:50;;;;;;;3.30;1.63;;;15.20;99.90;;;;;;5012404;28;20413;-67
2022/09/18 08:22:15;;;;;;;3.60;1.17;;;14.40;99.90;;;;;;5012322;28;20409;-67
2022/09/18 08:24:41;;;;;;;2.50;1.47;;;14.70;99.90;;;;;;5012303;28;20176;-67
2022/09/18 08:27:06;;;;;;;2.93;1.40;;;15.30;99.90;;;;;;5012263;28;20242;-67
2022/09/18 08:29:32;;;;;;;3.00;1.50;;;15.30;99.90;;;;;;5012360;28;20175;-67
2022/09/18 08:31:58;;;;;;;3.53;1.97;;;14.90;99.90;;;;;;5012298;28;20221;-66
2022/09/18 08:34:24;;;;;;;10.60;4.00;;;14.60;99.90;;;;;;5012082;28;20681;-67
2022/09/18 08:36:49;;;;;;;6.77;2.27;;;15.80;99.90;;;;;;5011912;28;20222;-68
2022/09/18 08:39:15;;;;;;;2.53;1.20;;;15.80;99.90;;;;;;5012408;28;20751;-67
2022/09/18 08:42:05;;;;;;;4.50;1.90;;;15.20;99.90;;;;;;5012230;28;20611;-69
2022/09/18 08:44:43;;;;;;;2.03;1.07;;;15.40;99.90;;;;;;5012400;28;20173;-68
2022/09/18 08:47:25;;;;;;;5.23;2.17;;;14.80;99.90;;;;;;5012071;28;20755;-67
2022/09/18 08:50:00;;;;;;;4.40;1.60;;;15.40;99.90;;;;;;5012295;28;20433;-67
2022/09/18 08:52:33;;;;;;;4.13;1.50;;;15.00;99.90;;;;;;5012377;28;20486;-67
2022/09/18 08:55:16;;;;;;;6.10;2.13;;;15.40;99.90;;;;;;5011623;28;20404;-68
2022/09/18 08:57:45;;;;;;;2.83;1.00;;;15.90;99.90;;;;;;5011718;28;20469;-67
2022/09/18 09:00:11;;;;;;;5.60;2.07;;;16.10;99.90;;;;;;5011807;28;20903;-68
2022/09/18 09:02:44;;;;;;;3.57;1.30;;;16.60;99.90;;;;;;5011976;28;20904;-67
2022/09/18 09:05:22;;;;;;;4.57;2.47;;;15.10;99.90;;;;;;5011842;28;20471;-67
2022/09/18 09:08:13;;;;;;;3.40;2.03;;;14.60;99.90;;;;;;5011806;28;20509;-68
2022/09/18 09:10:49;;;;;;;3.80;1.10;;;15.00;99.90;;;;;;5011606;28;20403;-66
2022/09/18 09:13:15;;;;;;;2.30;1.30;;;14.30;99.90;;;;;;5011797;28;20507;-67
2022/09/18 09:16:00;;;;;;;3.03;1.07;;;13.90;99.90;;;;;;5011362;28;20933;-66
2022/09/18 09:18:56;;;;;;;5.27;1.07;;;14.50;99.90;;;;;;5011248;28;20197;-66
2022/09/18 09:21:29;;;;;;;4.83;1.60;;;15.00;99.90;;;;;;5012832;28;20415;-68
2022/09/18 09:24:12;;;;;;;5.60;1.67;;;15.90;99.90;;;;;;5011747;28;20411;-67
2022/09/18 09:26:38;;;;;;;2.80;1.10;;;15.30;99.90;;;;;;5011232;28;20428;-67
2022/09/18 09:29:12;;;;;;;2.23;1.30;;;15.40;99.90;;;;;;5011234;28;20451;-67
2022/09/18 09:31:43;;;;;;;2.67;1.23;;;15.60;99.90;;;;;;5011343;28;20411;-67
2022/09/18 09:34:23;;;;;;;2.97;1.30;;;14.90;99.90;;;;;;5011267;28;20406;-67
2022/09/18 09:36:52;;;;;;;3.47;1.20;;;14.90;99.90;;;;;;5011136;28;20528;-67
2022/09/18 09:39:25;;;;;;;4.47;1.57;;;15.10;99.90;;;;;;5011545;28;20423;-67
2022/09/18 09:42:06;;;;;;;4.83;1.30;;;14.80;99.90;;;;;;5011974;28;20504;-67
2022/09/18 09:44:49;;;;;;;1.93;1.00;;;14.90;99.90;;;;;;5011667;28;20412;-67
2022/09/18 09:47:40;;;;;;;4.77;1.50;;;14.40;99.90;;;;;;5011643;28;20421;-67
2022/09/18 09:50:45;;;;;;;3.03;1.10;;;14.70;99.90;;;;;;5011545;28;20543;-67
2022/09/18 09:53:12;;;;;;;4.50;1.30;;;14.90;99.90;;;;;;5011348;28;20452;-66
2022/09/18 09:56:05;;;;;;;1.93;0.90;;;15.50;99.90;;;;;;5011101;28;20425;-67
2022/09/18 09:59:13;;;;;;;5.17;1.63;;;15.40;99.90;;;;;;5011222;28;20452;-67
2022/09/18 10:01:51;;;;;;;6.27;2.23;;;14.60;99.90;;;;;;4973265;28;20770;-67
2022/09/18 10:04:40;;;;;;;1.97;1.30;;;14.60;99.90;;;;;;5011158;28;20851;-67
2022/09/18 10:07:33;;;;;;;6.87;1.90;;;14.00;99.90;;;;;;5011008;28;20425;-67
2022/09/18 10:10:29;;;;;;;5.07;1.77;;;14.30;99.90;;;;;;5011055;28;20415;-66
2022/09/18 10:13:03;;;;;;;9.60;5.47;;;14.40;99.90;;;;;;5010908;28;20410;-66
2022/09/18 10:15:43;;;;;;;3.83;1.63;;;14.60;99.90;;;;;;5011299;28;20461;-66
2022/09/18 10:18:16;;;;;;;3.03;1.20;;;14.80;99.90;;;;;;5010890;28;20456;-66
2022/09/18 10:20:43;;;;;;;4.33;1.60;;;14.50;99.90;;;;;;5012960;28;20414;-67
2022/09/18 10:23:22;;;;;;;3.07;1.10;;;14.40;99.90;;;;;;5015141;28;20765;-68
2022/09/18 10:25:53;;;;;;;4.30;1.10;;;14.30;99.90;;;;;;5014654;28;20411;-69
2022/09/18 10:28:20;;;;;;;10.47;1.20;;;15.00;99.90;;;;;;5014575;28;20995;-67
2022/09/18 10:31:03;;;;;;;3.17;1.10;;;15.00;99.90;;;;;;5014814;28;20905;-67
2022/09/18 10:33:55;;;;;;;2.17;1.20;;;15.10;99.90;;;;;;5014423;28;20397;-66
2022/09/18 10:36:42;;;;;;;2.63;1.50;;;14.40;99.90;;;;;;5010552;28;20954;-66
2022/09/18 10:39:25;;;;;;;4.67;1.33;;;14.40;99.90;;;;;;5014431;28;20411;-66
2022/09/18 10:41:56;;;;;;;4.60;1.30;;;14.50;99.90;;;;;;5014355;28;20505;-67
2022/09/18 10:44:34;;;;;;;2.30;1.10;;;14.90;99.90;;;;;;5014545;28;20401;-66
2022/09/18 10:47:29;;;;;;;1.20;0.80;;;14.70;99.90;;;;;;5014084;28;20446;-67
2022/09/18 10:50:16;;;;;;;4.83;1.10;;;15.00;99.90;;;;;;4997272;28;20432;-68
2022/09/18 10:52:45;;;;;;;1.90;0.97;;;14.90;99.90;;;;;;5014512;28;20421;-67
2022/09/18 10:55:23;;;;;;;1.97;0.90;;;15.00;99.90;;;;;;5014228;28;20413;-67
2022/09/18 10:58:14;;;;;;;1.90;0.80;;;14.80;99.90;;;;;;5014208;28;20922;-67
2022/09/18 11:00:55;;;;;;;5.03;1.90;;;14.90;99.90;;;;;;5014181;28;20399;-67
2022/09/18 11:03:23;;;;;;;0.90;0.80;;;14.60;99.90;;;;;;5014636;28;20812;-67
2022/09/18 11:05:56;;;;;;;3.07;1.43;;;14.80;99.90;;;;;;5014034;28;20747;-67
2022/09/18 11:08:32;;;;;;;1.10;0.80;;;15.20;99.90;;;;;;5014517;28;20958;-73
2022/09/18 11:11:05;;;;;;;3.07;1.30;;;15.30;99.90;;;;;;4996650;28;20486;-67
2022/09/18 11:13:31;;;;;;;1.60;0.83;;;15.20;99.90;;;;;;5013975;28;20399;-67
2022/09/18 11:15:59;;;;;;;2.70;1.10;;;15.50;99.90;;;;;;5013662;28;20562;-67
2022/09/18 11:18:25;;;;;;;2.07;1.20;;;15.40;99.90;;;;;;5014096;28;20432;-67
2022/09/18 11:20:53;;;;;;;4.53;1.30;;;15.00;99.90;;;;;;5013751;28;20495;-67
2022/09/18 11:23:32;;;;;;;3.63;0.90;;;14.80;99.90;;;;;;5013811;28;20396;-67
2022/09/18 11:26:18;;;;;;;3.30;0.90;;;14.40;99.90;;;;;;5013595;28;20443;-67
2022/09/18 11:29:16;;;;;;;2.30;0.83;;;14.10;99.90;;;;;;5012545;28;20845;-68
2022/09/18 11:31:47;;;;;;;2.50;1.00;;;13.90;99.90;;;;;;5012756;28;20474;-67
2022/09/18 11:34:32;;;;;;;1.73;1.00;;;14.00;99.90;;;;;;5013470;28;20380;-67
2022/09/18 11:37:03;;;;;;;2.30;0.80;;;13.50;99.90;;;;;;5013523;28;20921;-67
2022/09/18 11:39:35;;;;;;;1.20;0.70;;;13.60;99.90;;;;;;5013403;28;20404;-67
2022/09/18 11:42:10;;;;;;;3.87;0.90;;;14.20;99.90;;;;;;5013341;28;20403;-71
2022/09/18 11:44:36;;;;;;;1.80;0.80;;;14.50;99.90;;;;;;5012878;28;20848;-70
2022/09/18 11:47:20;;;;;;;4.10;0.97;;;14.60;99.90;;;;;;5012930;28;20427;-68
2022/09/18 11:50:02;;;;;;;3.83;1.03;;;15.10;99.90;;;;;;5013087;28;20439;-69
2022/09/18 11:52:44;;;;;;;3.70;1.30;;;15.20;99.90;;;;;;5011336;28;20430;-69
2022/09/18 11:55:25;;;;;;;2.13;1.33;;;15.20;99.90;;;;;;4996547;28;20401;-68
2022/09/18 11:57:55;;;;;;;1.73;1.63;;;15.20;99.90;;;;;;5013389;28;20432;-69
2022/09/18 12:00:23;;;;;;;2.80;1.20;;;15.20;99.90;;;;;;5013484;28;20442;-68
2022/09/18 12:03:25;;;;;;;1.20;0.90;;;15.00;99.90;;;;;;5013268;28;20419;-69
2022/09/18 12:05:56;;;;;;;4.90;1.10;;;15.00;99.90;;;;;;5013152;28;20406;-69
2022/09/18 12:08:27;;;;;;;3.87;1.73;;;15.20;99.90;;;;;;5013094;28;20462;-69
2022/09/18 12:10:55;;;;;;;4.13;1.50;;;15.20;99.90;;;;;;5013121;28;20414;-69
2022/09/18 12:13:40;;;;;;;8.10;2.33;;;15.40;99.90;;;;;;5012924;28;20410;-68
2022/09/18 12:16:23;;;;;;;4.20;2.90;;;15.10;99.90;;;;;;5012847;28;20387;-69
2022/09/18 12:19:18;;;;;;;2.67;1.43;;;14.00;99.90;;;;;;5013034;28;20407;-70
2022/09/18 12:22:22;;;;;;;14.30;8.27;;;13.30;99.90;;;;;;5007830;28;20412;-70
2022/09/18 12:24:49;;;;;;;1.57;0.97;;;13.10;99.90;;;;;;5012844;28;20399;-69
2022/09/18 12:27:49;;;;;;;3.50;1.20;;;12.70;99.90;;;;;;5012805;28;20945;-69
2022/09/18 12:30:19;;;;;;;1.70;0.90;;;12.60;99.90;;;;;;5012951;28;20461;-69
2022/09/18 12:33:07;;;;;;;1.10;1.00;;;12.50;99.90;;;;;;5012837;28;20559;-70
2022/09/18 12:35:59;;;;;;;2.67;1.20;;;12.70;99.90;;;;;;5012770;28;20431;-70
2022/09/18 12:38:49;;;;;;;4.67;3.63;;;13.20;99.90;;;;;;5012751;28;21013;-69
2022/09/18 12:41:36;;;;;;;0.80;0.80;;;13.50;99.90;;;;;;5012895;28;20403;-70
2022/09/18 12:44:25;;;;;;;2.50;1.50;;;13.60;99.90;;;;;;5011828;28;20414;-70
2022/09/18 12:47:05;;;;;;;1.50;1.00;;;13.90;99.90;;;;;;5012314;28;20760;-70
2022/09/18 12:50:03;;;;;;;19.93;11.30;;;14.00;99.90;;;;;;5012698;28;20454;-69
2022/09/18 12:52:47;;;;;;;3.10;1.00;;;14.30;99.90;;;;;;5012612;28;20400;-69
2022/09/18 12:55:44;;;;;;;8.73;7.23;;;14.20;99.90;;;;;;5012460;28;20411;-69
2022/09/18 12:58:12;;;;;;;6.43;1.90;;;14.40;99.90;;;;;;5012425;28;20430;-70
2022/09/18 13:00:40;;;;;;;14.70;8.07;;;14.40;99.90;;;;;;5012178;28;20415;-71
2022/09/18 13:03:29;;;;;;;3.20;1.30;;;14.60;99.90;;;;;;5012263;28;20418;-70
2022/09/18 13:06:05;;;;;;;61.07;36.20;;;14.40;99.90;;;;;;5012031;28;20403;-70
2022/09/18 13:08:43;;;;;;;15.70;8.67;;;14.50;99.90;;;;;;5012242;28;20462;-69
2022/09/18 13:11:19;;;;;;;2.70;2.50;;;14.60;99.90;;;;;;5012535;28;20770;-69
2022/09/18 13:14:00;;;;;;;3.17;2.00;;;14.60;99.90;;;;;;5012148;28;20870;-69